createdAt,value
2022-08-19T00:01:55.509Z,5.47
2022-08-19T00:04:29.436Z,5.28
2022-08-19T00:06:57.269Z,4.70
2022-08-19T00:09:25.878Z,5.90
2022-08-19T00:11:54.959Z,5.28
2022-08-19T00:14:23.899Z,5.20
2022-08-19T00:16:56.379Z,5.50
2022-08-19T00:19:25.881Z,4.93
2022-08-19T00:21:54.267Z,5.30
2022-08-19T00:24:22.039Z,5.18
2022-08-19T00:26:49.725Z,5.53
2022-08-19T00:29:19.934Z,5.40
2022-08-19T00:31:48.326Z,5.12
2022-08-19T00:34:18.481Z,5.10
2022-08-19T00:36:47.060Z,5.53
2022-08-19T00:39:20.294Z,6.12
2022-08-19T00:41:52.244Z,5.35
2022-08-19T00:44:29.201Z,5.43
2022-08-19T00:47:01.085Z,5.70
2022-08-19T00:49:39.148Z,6.22
2022-08-19T00:52:14.836Z,5.30
2022-08-19T00:54:43.553Z,5.43
2022-08-19T00:57:16.988Z,5.15
2022-08-19T00:59:56.299Z,6.12
2022-08-19T01:02:31.571Z,5.90
2022-08-19T01:04:59.699Z,6.00
2022-08-19T01:07:27.376Z,6.32
2022-08-19T01:09:55.878Z,4.45
2022-08-19T01:12:24.423Z,6.32
2022-08-19T01:14:53.388Z,6.80
2022-08-19T01:17:21.750Z,6.35
2022-08-19T01:19:50.261Z,7.22
2022-08-19T01:22:33.978Z,6.18
2022-08-19T01:25:03.486Z,6.87
2022-08-19T01:27:47.913Z,7.22
2022-08-19T01:30:22.761Z,7.37
2022-08-19T01:32:52.067Z,6.70
2022-08-19T01:35:21.045Z,6.95
2022-08-19T01:38:05.009Z,6.80
2022-08-19T01:40:35.569Z,7.00
2022-08-19T01:43:05.513Z,7.57
2022-08-19T01:45:35.409Z,8.07
2022-08-19T01:48:03.400Z,8.05
2022-08-19T01:50:33.862Z,8.43
2022-08-19T01:53:07.881Z,8.55
2022-08-19T01:55:40.971Z,10.85
2022-08-19T01:58:14.949Z,11.00
2022-08-19T02:00:43.822Z,10.60
2022-08-19T02:03:13.214Z,10.75
2022-08-19T02:05:42.014Z,10.38
2022-08-19T02:08:10.659Z,10.90
2022-08-19T02:10:42.718Z,11.18
2022-08-19T02:13:10.987Z,11.07
2022-08-19T02:15:39.497Z,10.90
2022-08-19T02:18:09.459Z,10.80
2022-08-19T02:20:38.069Z,7.80
2022-08-19T02:23:06.033Z,10.80
2022-08-19T02:25:42.614Z,10.35
2022-08-19T02:28:10.421Z,10.57
2022-08-19T02:30:38.090Z,10.95
2022-08-19T02:33:06.787Z,10.07
2022-08-19T02:35:34.442Z,10.77
2022-08-19T02:38:20.840Z,11.63
2022-08-19T02:40:54.419Z,10.45
2022-08-19T02:43:23.251Z,10.98
2022-08-19T02:45:51.921Z,12.27
2022-08-19T02:48:22.053Z,12.30
2022-08-19T02:50:55.794Z,12.55
2022-08-19T02:53:25.458Z,11.93
2022-08-19T02:55:53.798Z,12.27
2022-08-19T02:58:23.089Z,12.10
2022-08-19T03:00:55.572Z,12.60
2022-08-19T03:03:23.330Z,13.52
2022-08-19T03:05:56.577Z,12.98
2022-08-19T03:08:27.825Z,12.82
2022-08-19T03:10:55.969Z,13.27
2022-08-19T03:13:23.733Z,12.95
2022-08-19T03:15:51.531Z,13.68
2022-08-19T03:18:19.570Z,12.50
2022-08-19T03:20:50.262Z,13.95
2022-08-19T03:23:19.035Z,13.90
2022-08-19T03:26:03.833Z,13.43
2022-08-19T03:28:37.078Z,14.05
2022-08-19T03:31:44.424Z,13.80
2022-08-19T03:34:04.967Z,14.55
2022-08-19T03:36:35.984Z,13.35
2022-08-19T03:39:03.671Z,13.88
2022-08-19T03:41:45.436Z,14.20
2022-08-19T03:44:25.415Z,15.13
2022-08-19T03:46:59.789Z,14.38
2022-08-19T03:49:31.953Z,14.70
2022-08-19T03:52:02.370Z,13.25
2022-08-19T03:54:30.755Z,10.10
2022-08-19T03:56:59.356Z,13.40
2022-08-19T03:59:33.312Z,13.45
2022-08-19T04:02:03.588Z,15.00
2022-08-19T04:04:32.156Z,15.27
2022-08-19T04:07:00.255Z,14.55
2022-08-19T04:09:28.142Z,14.32
2022-08-19T04:11:57.888Z,15.50
2022-08-19T04:14:32.130Z,15.07
2022-08-19T04:17:02.167Z,14.87
2022-08-19T04:19:32.702Z,15.63
2022-08-19T04:22:00.779Z,14.50
2022-08-19T04:24:28.685Z,14.02
2022-08-19T04:26:56.535Z,14.43
2022-08-19T04:29:27.179Z,14.68
2022-08-19T04:31:57.609Z,13.85
2022-08-19T04:34:28.937Z,12.37
2022-08-19T04:36:59.174Z,13.10
2022-08-19T04:39:50.564Z,12.50
2022-08-19T04:42:39.114Z,11.60
2022-08-19T04:45:13.593Z,12.18
2022-08-19T04:47:46.924Z,11.23
2022-08-19T04:50:19.364Z,11.55
2022-08-19T04:52:47.129Z,12.77
2022-08-19T04:55:16.277Z,11.70
2022-08-19T04:57:43.949Z,11.38
2022-08-19T05:00:12.595Z,10.38
2022-08-19T05:02:40.979Z,11.90
2022-08-19T05:05:09.209Z,12.52
2022-08-19T05:07:37.782Z,12.85
2022-08-19T05:10:07.887Z,13.15
2022-08-19T05:12:35.816Z,13.93
2022-08-19T05:15:06.017Z,13.27
2022-08-19T05:17:38.301Z,13.32
2022-08-19T05:20:27.246Z,14.80
2022-08-19T05:22:55.350Z,14.05
2022-08-19T05:25:24.296Z,11.48
2022-08-19T05:27:52.018Z,13.82
2022-08-19T05:30:33.528Z,13.80
2022-08-19T05:33:08.433Z,14.00
2022-08-19T05:35:36.192Z,14.20
2022-08-19T05:38:03.899Z,14.95
2022-08-19T05:40:31.540Z,16.58
2022-08-19T05:42:59.219Z,16.25
2022-08-19T05:45:27.351Z,18.23
2022-08-19T05:47:55.068Z,17.33
2022-08-19T05:50:23.627Z,17.85
2022-08-19T05:52:51.431Z,17.62
2022-08-19T05:55:22.241Z,19.08
2022-08-19T05:57:50.400Z,18.98
2022-08-19T06:00:21.481Z,18.50
2022-08-19T06:02:53.242Z,18.33
2022-08-19T06:05:22.146Z,19.30
2022-08-19T06:07:49.873Z,18.77
2022-08-19T06:10:17.779Z,18.08
2022-08-19T06:12:45.422Z,19.00
2022-08-19T06:15:16.159Z,18.62
2022-08-19T06:17:46.460Z,19.50
2022-08-19T06:20:18.747Z,19.62
2022-08-19T06:22:48.898Z,15.55
2022-08-19T06:25:17.592Z,21.23
2022-08-19T06:28:13.538Z,20.08
2022-08-19T06:30:33.862Z,18.85
2022-08-19T06:33:01.594Z,20.92
2022-08-19T06:35:31.368Z,20.58
2022-08-19T06:37:59.072Z,19.95
2022-08-19T06:40:29.021Z,19.77
2022-08-19T06:42:58.306Z,20.27
2022-08-19T06:45:35.516Z,19.52
2022-08-19T06:48:03.859Z,19.23
2022-08-19T06:50:31.627Z,19.35
2022-08-19T06:53:01.441Z,18.87
2022-08-19T06:55:33.398Z,20.40
2022-08-19T06:58:05.616Z,18.85
2022-08-19T07:00:33.962Z,19.50
2022-08-19T07:03:06.197Z,19.87
2022-08-19T07:05:45.476Z,19.65
2022-08-19T07:08:13.665Z,20.08
2022-08-19T07:10:45.886Z,19.30
2022-08-19T07:13:14.086Z,19.73
2022-08-19T07:15:41.854Z,20.48
2022-08-19T07:18:11.682Z,18.42
2022-08-19T07:20:40.470Z,19.37
2022-08-19T07:23:09.940Z,18.95
2022-08-19T07:25:52.490Z,18.85
2022-08-19T07:28:24.747Z,17.75
2022-08-19T07:30:53.077Z,16.65
2022-08-19T07:33:21.347Z,17.08
2022-08-19T07:35:49.112Z,16.87
2022-08-19T07:38:18.441Z,16.83
2022-08-19T07:40:48.203Z,17.05
2022-08-19T21:15:17.357Z,13.25
2022-08-19T21:17:45.369Z,12.75
2022-08-19T21:20:13.398Z,12.23
2022-08-19T21:22:41.519Z,12.10
2022-08-19T21:25:09.302Z,12.43
2022-08-19T21:27:37.059Z,11.43
2022-08-19T21:30:06.099Z,11.52
2022-08-19T21:32:33.857Z,12.60
2022-08-19T21:35:03.261Z,12.15
2022-08-19T21:37:31.187Z,11.48
2022-08-19T21:39:58.881Z,11.45
2022-08-19T21:42:26.594Z,11.23
2022-08-19T21:44:54.962Z,11.60
2022-08-19T21:47:22.729Z,11.05
2022-08-19T21:49:50.407Z,11.63
2022-08-19T21:52:26.248Z,10.65
2022-08-19T21:54:54.263Z,11.05
2022-08-19T21:57:21.953Z,10.63
2022-08-19T21:59:49.582Z,10.88
2022-08-19T22:02:20.853Z,10.50
2022-08-19T22:04:50.865Z,10.00
2022-08-19T22:07:19.585Z,10.25
2022-08-19T22:09:49.218Z,10.13
2022-08-19T22:12:46.075Z,10.15
2022-08-19T22:15:22.457Z,10.25
2022-08-19T22:17:51.190Z,11.12
2022-08-19T22:20:24.016Z,9.80
2022-08-19T22:22:57.499Z,10.48
2022-08-19T22:25:31.239Z,10.93
2022-08-19T22:28:01.550Z,10.43
2022-08-19T22:30:33.730Z,10.50
2022-08-19T22:33:05.536Z,10.75
2022-08-19T22:35:36.856Z,10.32
2022-08-19T22:38:07.582Z,10.52
2022-08-19T22:40:38.047Z,10.85
2022-08-19T22:43:08.894Z,9.27
2022-08-19T22:45:37.461Z,11.50
2022-08-19T22:48:10.884Z,10.15
2022-08-19T22:50:40.147Z,10.75
2022-08-19T22:53:10.869Z,10.73
2022-08-19T22:55:39.954Z,10.77
2022-08-19T22:58:07.653Z,11.32
2022-08-19T23:00:36.029Z,10.15
2022-08-19T23:03:03.785Z,11.32
2022-08-19T23:05:31.569Z,9.82
2022-08-19T23:07:59.554Z,11.07
2022-08-19T23:10:30.083Z,10.30
2022-08-19T23:13:00.182Z,10.32
2022-08-19T23:15:31.570Z,9.85
2022-08-19T23:18:03.109Z,11.12
2022-08-19T23:20:34.686Z,9.88
2022-08-19T23:23:04.983Z,11.45
2022-08-19T23:25:34.430Z,10.52
2022-08-19T23:28:20.907Z,9.70
2022-08-19T23:30:50.739Z,10.13
2022-08-19T23:33:26.032Z,11.30
2022-08-19T23:36:16.542Z,10.98
2022-08-19T23:38:47.098Z,10.75
2022-08-19T23:41:17.122Z,11.25
2022-08-19T23:43:45.966Z,10.32
2022-08-19T23:46:27.309Z,10.80
2022-08-19T23:48:56.711Z,10.23
2022-08-19T23:51:24.783Z,11.20
2022-08-19T23:53:52.512Z,10.27
2022-08-19T23:56:20.182Z,10.45
2022-08-19T23:58:50.100Z,11.23
